sensor_id;sensor_type;location;lat;lon;timestamp;P1;durP1;ratioP1;P2;durP2;ratioP2
33270;SDS011;53180;51.344;6.152;2022-10-20T00:02:13;3.45;;;2.33;;
33270;SDS011;53180;51.344;6.152;2022-10-20T00:04:42;4.93;;;2.70;;
33270;SDS011;53180;51.344;6.152;2022-10-20T00:07:10;4.35;;;2.97;;
33270;SDS011;53180;51.344;6.152;2022-10-20T00:09:38;4.15;;;2.80;;
33270;SDS011;53180;51.344;6.152;2022-10-20T00:12:07;4.97;;;2.70;;
33270;SDS011;53180;51.344;6.152;2022-10-20T00:14:35;6.55;;;3.20;;
33270;SDS011;53180;51.344;6.152;2022-10-20T00:17:04;6.82;;;2.95;;
33270;SDS011;53180;51.344;6.152;2022-10-20T00:19:34;4.05;;;2.58;;
33270;SDS011;53180;51.344;6.152;2022-10-20T00:22:02;3.33;;;2.28;;
33270;SDS011;53180;51.344;6.152;2022-10-20T00:24:30;4.85;;;3.00;;
33270;SDS011;53180;51.344;6.152;2022-10-20T00:26:59;5.47;;;2.88;;
33270;SDS011;53180;51.344;6.152;2022-10-20T00:29:27;4.47;;;3.08;;
33270;SDS011;53180;51.344;6.152;2022-10-20T00:31:55;5.00;;;2.97;;
33270;SDS011;53180;51.344;6.152;2022-10-20T00:34:24;4.80;;;2.97;;
33270;SDS011;53180;51.344;6.152;2022-10-20T00:36:53;4.57;;;2.75;;
33270;SDS011;53180;51.344;6.152;2022-10-20T00:39:21;5.18;;;3.30;;
33270;SDS011;53180;51.344;6.152;2022-10-20T00:41:50;5.10;;;2.92;;
33270;SDS011;53180;51.344;6.152;2022-10-20T00:47:18;4.68;;;3.00;;
33270;SDS011;53180;51.344;6.152;2022-10-20T00:50:02;4.47;;;3.08;;
33270;SDS011;53180;51.344;6.152;2022-10-20T00:52:37;5.75;;;3.50;;
33270;SDS011;53180;51.344;6.152;2022-10-20T00:55:07;5.80;;;3.53;;
33270;SDS011;53180;51.344;6.152;2022-10-20T00:57:38;7.97;;;2.92;;
33270;SDS011;53180;51.344;6.152;2022-10-20T01:00:09;6.47;;;3.55;;
33270;SDS011;53180;51.344;6.152;2022-10-20T01:02:38;5.57;;;3.40;;
33270;SDS011;53180;51.344;6.152;2022-10-20T01:05:07;3.83;;;2.83;;
33270;SDS011;53180;51.344;6.152;2022-10-20T01:07:37;4.97;;;3.05;;
33270;SDS011;53180;51.344;6.152;2022-10-20T01:10:06;6.00;;;3.85;;
33270;SDS011;53180;51.344;6.152;2022-10-20T01:12:36;4.50;;;3.40;;
33270;SDS011;53180;51.344;6.152;2022-10-20T01:15:15;6.90;;;3.50;;
33270;SDS011;53180;51.344;6.152;2022-10-20T01:17:53;4.07;;;2.95;;
33270;SDS011;53180;51.344;6.152;2022-10-20T01:26:46;5.80;;;3.55;;
33270;SDS011;53180;51.344;6.152;2022-10-20T01:29:42;4.95;;;3.45;;
33270;SDS011;53180;51.344;6.152;2022-10-20T01:32:15;6.43;;;3.20;;
33270;SDS011;53180;51.344;6.152;2022-10-20T01:34:50;5.63;;;3.80;;
33270;SDS011;53180;51.344;6.152;2022-10-20T01:37:30;5.78;;;3.88;;
33270;SDS011;53180;51.344;6.152;2022-10-20T01:40:16;4.13;;;3.10;;
33270;SDS011;53180;51.344;6.152;2022-10-20T01:42:52;4.40;;;2.92;;
33270;SDS011;53180;51.344;6.152;2022-10-20T01:45:26;5.85;;;3.25;;
33270;SDS011;53180;51.344;6.152;2022-10-20T01:47:58;5.57;;;3.30;;
33270;SDS011;53180;51.344;6.152;2022-10-20T01:50:30;5.25;;;3.08;;
33270;SDS011;53180;51.344;6.152;2022-10-20T01:53:00;4.57;;;3.30;;
33270;SDS011;53180;51.344;6.152;2022-10-20T01:55:29;6.47;;;3.70;;
33270;SDS011;53180;51.344;6.152;2022-10-20T01:58:04;4.43;;;3.13;;
33270;SDS011;53180;51.344;6.152;2022-10-20T02:01:02;4.30;;;3.10;;
33270;SDS011;53180;51.344;6.152;2022-10-20T02:03:40;3.85;;;2.92;;
33270;SDS011;53180;51.344;6.152;2022-10-20T02:06:21;6.15;;;3.53;;
33270;SDS011;53180;51.344;6.152;2022-10-20T02:09:02;5.68;;;3.08;;
33270;SDS011;53180;51.344;6.152;2022-10-20T02:11:36;6.10;;;3.28;;
33270;SDS011;53180;51.344;6.152;2022-10-20T02:14:11;5.88;;;3.50;;
33270;SDS011;53180;51.344;6.152;2022-10-20T02:16:44;3.83;;;2.92;;
33270;SDS011;53180;51.344;6.152;2022-10-20T02:19:15;4.80;;;3.22;;
33270;SDS011;53180;51.344;6.152;2022-10-20T02:21:48;5.90;;;3.80;;
33270;SDS011;53180;51.344;6.152;2022-10-20T02:24:18;5.95;;;2.72;;
33270;SDS011;53180;51.344;6.152;2022-10-20T02:26:51;4.95;;;3.00;;
33270;SDS011;53180;51.344;6.152;2022-10-20T02:29:26;8.65;;;3.17;;
33270;SDS011;53180;51.344;6.152;2022-10-20T02:31:57;4.22;;;3.10;;
33270;SDS011;53180;51.344;6.152;2022-10-20T02:34:26;6.10;;;2.83;;
33270;SDS011;53180;51.344;6.152;2022-10-20T02:36:55;5.13;;;3.17;;
33270;SDS011;53180;51.344;6.152;2022-10-20T02:39:25;6.05;;;3.38;;
33270;SDS011;53180;51.344;6.152;2022-10-20T02:41:53;4.80;;;3.22;;
33270;SDS011;53180;51.344;6.152;2022-10-20T02:44:21;4.50;;;2.92;;
33270;SDS011;53180;51.344;6.152;2022-10-20T02:46:51;4.00;;;2.60;;
33270;SDS011;53180;51.344;6.152;2022-10-20T02:49:19;4.20;;;2.83;;
33270;SDS011;53180;51.344;6.152;2022-10-20T02:51:50;4.45;;;2.80;;
33270;SDS011;53180;51.344;6.152;2022-10-20T02:54:18;5.28;;;3.60;;
33270;SDS011;53180;51.344;6.152;2022-10-20T02:56:47;7.78;;;2.58;;
33270;SDS011;53180;51.344;6.152;2022-10-20T02:59:15;3.78;;;2.88;;
33270;SDS011;53180;51.344;6.152;2022-10-20T03:01:43;4.88;;;3.17;;
33270;SDS011;53180;51.344;6.152;2022-10-20T03:04:13;4.25;;;3.05;;
33270;SDS011;53180;51.344;6.152;2022-10-20T03:06:41;4.68;;;3.22;;
33270;SDS011;53180;51.344;6.152;2022-10-20T03:09:10;10.82;;;3.28;;
33270;SDS011;53180;51.344;6.152;2022-10-20T03:11:38;6.50;;;3.40;;
33270;SDS011;53180;51.344;6.152;2022-10-20T03:14:07;3.95;;;2.97;;
33270;SDS011;53180;51.344;6.152;2022-10-20T03:16:35;3.95;;;3.00;;
33270;SDS011;53180;51.344;6.152;2022-10-20T03:19:03;5.10;;;2.85;;
33270;SDS011;53180;51.344;6.152;2022-10-20T03:21:38;3.00;;;2.33;;
33270;SDS011;53180;51.344;6.152;2022-10-20T03:24:06;4.65;;;3.00;;
33270;SDS011;53180;51.344;6.152;2022-10-20T03:26:34;4.25;;;2.95;;
33270;SDS011;53180;51.344;6.152;2022-10-20T03:29:03;6.18;;;3.40;;
33270;SDS011;53180;51.344;6.152;2022-10-20T03:31:31;4.68;;;3.15;;
33270;SDS011;53180;51.344;6.152;2022-10-20T03:34:00;4.40;;;3.22;;
33270;SDS011;53180;51.344;6.152;2022-10-20T03:36:28;6.55;;;3.33;;
33270;SDS011;53180;51.344;6.152;2022-10-20T03:38:58;4.13;;;3.03;;
33270;SDS011;53180;51.344;6.152;2022-10-20T03:41:26;4.57;;;2.95;;
33270;SDS011;53180;51.344;6.152;2022-10-20T03:43:55;9.90;;;3.55;;
33270;SDS011;53180;51.344;6.152;2022-10-20T03:46:24;5.43;;;3.60;;
33270;SDS011;53180;51.344;6.152;2022-10-20T03:48:52;4.85;;;3.25;;
33270;SDS011;53180;51.344;6.152;2022-10-20T03:51:20;3.90;;;2.83;;
33270;SDS011;53180;51.344;6.152;2022-10-20T03:53:48;4.43;;;3.05;;
33270;SDS011;53180;51.344;6.152;2022-10-20T03:56:18;6.53;;;3.47;;
33270;SDS011;53180;51.344;6.152;2022-10-20T03:58:47;5.90;;;3.75;;
33270;SDS011;53180;51.344;6.152;2022-10-20T04:01:17;6.45;;;3.30;;
33270;SDS011;53180;51.344;6.152;2022-10-20T04:03:48;4.50;;;3.13;;
33270;SDS011;53180;51.344;6.152;2022-10-20T04:06:16;4.35;;;2.92;;
33270;SDS011;53180;51.344;6.152;2022-10-20T04:08:44;4.30;;;2.97;;
33270;SDS011;53180;51.344;6.152;2022-10-20T04:11:13;4.20;;;3.05;;
33270;SDS011;53180;51.344;6.152;2022-10-20T04:13:42;4.03;;;3.03;;
33270;SDS011;53180;51.344;6.152;2022-10-20T04:16:10;4.97;;;3.00;;
33270;SDS011;53180;51.344;6.152;2022-10-20T04:18:39;5.53;;;3.03;;
33270;SDS011;53180;51.344;6.152;2022-10-20T04:21:07;4.07;;;2.80;;
33270;SDS011;53180;51.344;6.152;2022-10-20T04:23:35;3.92;;;2.67;;
33270;SDS011;53180;51.344;6.152;2022-10-20T04:26:07;4.78;;;3.10;;
33270;SDS011;53180;51.344;6.152;2022-10-20T04:28:36;4.32;;;3.10;;
33270;SDS011;53180;51.344;6.152;2022-10-20T04:31:06;3.55;;;2.70;;
33270;SDS011;53180;51.344;6.152;2022-10-20T04:33:35;4.27;;;3.10;;
33270;SDS011;53180;51.344;6.152;2022-10-20T04:36:04;4.85;;;3.03;;
33270;SDS011;53180;51.344;6.152;2022-10-20T04:38:35;14.20;;;5.97;;
33270;SDS011;53180;51.344;6.152;2022-10-20T04:41:03;4.00;;;2.72;;
33270;SDS011;53180;51.344;6.152;2022-10-20T04:43:32;4.07;;;3.00;;
33270;SDS011;53180;51.344;6.152;2022-10-20T04:46:01;4.50;;;2.97;;
33270;SDS011;53180;51.344;6.152;2022-10-20T04:48:35;4.10;;;3.10;;
33270;SDS011;53180;51.344;6.152;2022-10-20T04:51:04;4.55;;;3.20;;
33270;SDS011;53180;51.344;6.152;2022-10-20T04:53:35;4.22;;;2.88;;
33270;SDS011;53180;51.344;6.152;2022-10-20T04:56:04;3.90;;;3.10;;
33270;SDS011;53180;51.344;6.152;2022-10-20T04:58:34;4.82;;;3.05;;
33270;SDS011;53180;51.344;6.152;2022-10-20T05:01:03;8.77;;;5.85;;
33270;SDS011;53180;51.344;6.152;2022-10-20T05:03:33;5.70;;;4.20;;
33270;SDS011;53180;51.344;6.152;2022-10-20T05:06:07;5.30;;;3.10;;
33270;SDS011;53180;51.344;6.152;2022-10-20T05:08:38;3.80;;;2.88;;
33270;SDS011;53180;51.344;6.152;2022-10-20T05:11:07;4.65;;;2.95;;
33270;SDS011;53180;51.344;6.152;2022-10-20T05:13:37;5.57;;;2.85;;
33270;SDS011;53180;51.344;6.152;2022-10-20T05:16:06;4.35;;;2.80;;
33270;SDS011;53180;51.344;6.152;2022-10-20T05:18:36;4.32;;;3.13;;
33270;SDS011;53180;51.344;6.152;2022-10-20T05:21:06;3.50;;;2.60;;
33270;SDS011;53180;51.344;6.152;2022-10-20T05:23:37;5.72;;;2.88;;
33270;SDS011;53180;51.344;6.152;2022-10-20T05:26:07;3.60;;;2.70;;
33270;SDS011;53180;51.344;6.152;2022-10-20T05:28:38;3.92;;;2.70;;
33270;SDS011;53180;51.344;6.152;2022-10-20T05:31:08;7.03;;;2.90;;
33270;SDS011;53180;51.344;6.152;2022-10-20T05:33:39;3.47;;;2.85;;
33270;SDS011;53180;51.344;6.152;2022-10-20T05:36:12;3.45;;;2.75;;
33270;SDS011;53180;51.344;6.152;2022-10-20T05:38:47;3.25;;;2.72;;
33270;SDS011;53180;51.344;6.152;2022-10-20T05:41:17;4.72;;;2.70;;
33270;SDS011;53180;51.344;6.152;2022-10-20T05:43:48;4.35;;;2.63;;
33270;SDS011;53180;51.344;6.152;2022-10-20T05:46:18;3.63;;;2.60;;
33270;SDS011;53180;51.344;6.152;2022-10-20T05:48:50;3.40;;;2.30;;
33270;SDS011;53180;51.344;6.152;2022-10-20T05:51:21;4.25;;;2.83;;
33270;SDS011;53180;51.344;6.152;2022-10-20T05:53:51;5.05;;;3.13;;
33270;SDS011;53180;51.344;6.152;2022-10-20T05:56:22;3.20;;;2.72;;
33270;SDS011;53180;51.344;6.152;2022-10-20T05:58:52;6.95;;;2.47;;
33270;SDS011;53180;51.344;6.152;2022-10-20T06:01:22;4.45;;;3.08;;
33270;SDS011;53180;51.344;6.152;2022-10-20T06:03:54;5.28;;;3.33;;
33270;SDS011;53180;51.344;6.152;2022-10-20T06:06:25;4.07;;;2.75;;
33270;SDS011;53180;51.344;6.152;2022-10-20T06:08:55;4.03;;;2.70;;
33270;SDS011;53180;51.344;6.152;2022-10-20T06:11:26;3.72;;;2.80;;
33270;SDS011;53180;51.344;6.152;2022-10-20T06:13:55;2.75;;;2.42;;
33270;SDS011;53180;51.344;6.152;2022-10-20T06:16:24;5.75;;;2.80;;
33270;SDS011;53180;51.344;6.152;2022-10-20T06:18:55;5.32;;;3.15;;
33270;SDS011;53180;51.344;6.152;2022-10-20T06:21:25;5.35;;;2.75;;
33270;SDS011;53180;51.344;6.152;2022-10-20T06:23:56;4.05;;;2.63;;
33270;SDS011;53180;51.344;6.152;2022-10-20T06:26:26;4.43;;;3.03;;
33270;SDS011;53180;51.344;6.152;2022-10-20T06:28:58;4.38;;;3.03;;
33270;SDS011;53180;51.344;6.152;2022-10-20T06:31:30;4.10;;;2.67;;
33270;SDS011;53180;51.344;6.152;2022-10-20T06:34:01;4.20;;;2.63;;
33270;SDS011;53180;51.344;6.152;2022-10-20T06:36:33;4.30;;;2.78;;
33270;SDS011;53180;51.344;6.152;2022-10-20T06:39:03;3.75;;;2.88;;
33270;SDS011;53180;51.344;6.152;2022-10-20T06:41:33;3.58;;;2.67;;
33270;SDS011;53180;51.344;6.152;2022-10-20T06:44:02;4.93;;;3.30;;
33270;SDS011;53180;51.344;6.152;2022-10-20T06:46:31;3.80;;;2.65;;
33270;SDS011;53180;51.344;6.152;2022-10-20T06:49:03;4.00;;;2.70;;
33270;SDS011;53180;51.344;6.152;2022-10-20T06:51:33;5.25;;;3.20;;
33270;SDS011;53180;51.344;6.152;2022-10-20T06:54:03;4.43;;;2.97;;
33270;SDS011;53180;51.344;6.152;2022-10-20T06:56:32;6.78;;;2.72;;
33270;SDS011;53180;51.344;6.152;2022-10-20T06:59:02;5.35;;;2.78;;
33270;SDS011;53180;51.344;6.152;2022-10-20T07:01:32;3.38;;;2.50;;
33270;SDS011;53180;51.344;6.152;2022-10-20T07:04:04;6.80;;;3.08;;
33270;SDS011;53180;51.344;6.152;2022-10-20T07:06:35;4.88;;;3.03;;
33270;SDS011;53180;51.344;6.152;2022-10-20T07:09:05;3.78;;;2.50;;
33270;SDS011;53180;51.344;6.152;2022-10-20T07:11:37;3.67;;;2.78;;
33270;SDS011;53180;51.344;6.152;2022-10-20T07:14:06;3.88;;;2.85;;
33270;SDS011;53180;51.344;6.152;2022-10-20T07:16:34;3.90;;;2.80;;
33270;SDS011;53180;51.344;6.152;2022-10-20T07:19:04;11.25;;;3.28;;
33270;SDS011;53180;51.344;6.152;2022-10-20T07:21:32;5.65;;;3.08;;
33270;SDS011;53180;51.344;6.152;2022-10-20T07:24:06;5.10;;;2.83;;
33270;SDS011;53180;51.344;6.152;2022-10-20T07:26:37;3.95;;;2.92;;
33270;SDS011;53180;51.344;6.152;2022-10-20T07:29:07;3.53;;;2.90;;
33270;SDS011;53180;51.344;6.152;2022-10-20T07:31:37;4.43;;;2.80;;
33270;SDS011;53180;51.344;6.152;2022-10-20T07:34:09;6.38;;;3.05;;
33270;SDS011;53180;51.344;6.152;2022-10-20T07:36:51;3.72;;;2.83;;
33270;SDS011;53180;51.344;6.152;2022-10-20T07:39:20;5.63;;;3.10;;
33270;SDS011;53180;51.344;6.152;2022-10-20T07:41:48;3.47;;;2.60;;
33270;SDS011;53180;51.344;6.152;2022-10-20T07:44:17;4.38;;;2.97;;
33270;SDS011;53180;51.344;6.152;2022-10-20T07:46:45;4.78;;;3.10;;
33270;SDS011;53180;51.344;6.152;2022-10-20T07:49:15;4.03;;;2.60;;
33270;SDS011;53180;51.344;6.152;2022-10-20T07:52:03;5.20;;;3.00;;
33270;SDS011;53180;51.344;6.152;2022-10-20T07:54:32;7.07;;;3.40;;
33270;SDS011;53180;51.344;6.152;2022-10-20T07:57:01;4.07;;;2.83;;
33270;SDS011;53180;51.344;6.152;2022-10-20T07:59:29;4.63;;;3.45;;
33270;SDS011;53180;51.344;6.152;2022-10-20T08:01:58;4.13;;;3.00;;
33270;SDS011;53180;51.344;6.152;2022-10-20T08:04:27;4.18;;;3.00;;
33270;SDS011;53180;51.344;6.152;2022-10-20T08:06:57;5.05;;;2.83;;
33270;SDS011;53180;51.344;6.152;2022-10-20T08:09:26;4.20;;;2.88;;
33270;SDS011;53180;51.344;6.152;2022-10-20T08:11:54;3.90;;;2.65;;
33270;SDS011;53180;51.344;6.152;2022-10-20T08:14:23;6.35;;;2.90;;
33270;SDS011;53180;51.344;6.152;2022-10-20T08:16:53;5.00;;;3.30;;
33270;SDS011;53180;51.344;6.152;2022-10-20T08:19:23;4.05;;;2.78;;
33270;SDS011;53180;51.344;6.152;2022-10-20T08:22:04;4.13;;;2.88;;
33270;SDS011;53180;51.344;6.152;2022-10-20T08:24:32;4.72;;;3.30;;
33270;SDS011;53180;51.344;6.152;2022-10-20T08:27:00;8.43;;;3.17;;
33270;SDS011;53180;51.344;6.152;2022-10-20T08:29:29;5.53;;;3.10;;
33270;SDS011;53180;51.344;6.152;2022-10-20T08:31:57;4.57;;;3.25;;
33270;SDS011;53180;51.344;6.152;2022-10-20T08:34:26;5.35;;;2.90;;
33270;SDS011;53180;51.344;6.152;2022-10-20T08:36:54;5.18;;;3.08;;
33270;SDS011;53180;51.344;6.152;2022-10-20T08:39:24;6.53;;;3.40;;
33270;SDS011;53180;51.344;6.152;2022-10-20T08:41:52;5.32;;;3.03;;
33270;SDS011;53180;51.344;6.152;2022-10-20T08:44:34;5.93;;;3.38;;
33270;SDS011;53180;51.344;6.152;2022-10-20T08:47:11;4.47;;;3.20;;
33270;SDS011;53180;51.344;6.152;2022-10-20T08:49:53;5.82;;;2.97;;
33270;SDS011;53180;51.344;6.152;2022-10-20T08:52:22;3.63;;;2.88;;
33270;SDS011;53180;51.344;6.152;2022-10-20T08:54:53;4.32;;;2.90;;
33270;SDS011;53180;51.344;6.152;2022-10-20T08:57:24;4.85;;;2.97;;
33270;SDS011;53180;51.344;6.152;2022-10-20T08:59:56;5.28;;;3.15;;
33270;SDS011;53180;51.344;6.152;2022-10-20T09:02:34;4.15;;;2.97;;
33270;SDS011;53180;51.344;6.152;2022-10-20T09:05:02;4.57;;;2.72;;
33270;SDS011;53180;51.344;6.152;2022-10-20T09:07:34;4.03;;;2.75;;
33270;SDS011;53180;51.344;6.152;2022-10-20T09:12:49;9.30;;;2.72;;
33270;SDS011;53180;51.344;6.152;2022-10-20T09:15:18;4.20;;;3.08;;
33270;SDS011;53180;51.344;6.152;2022-10-20T09:17:53;6.35;;;3.10;;
33270;SDS011;53180;51.344;6.152;2022-10-20T09:20:27;4.70;;;2.95;;
33270;SDS011;53180;51.344;6.152;2022-10-20T09:23:00;6.30;;;3.25;;
33270;SDS011;53180;51.344;6.152;2022-10-20T09:25:43;3.88;;;2.60;;
33270;SDS011;53180;51.344;6.152;2022-10-20T09:28:16;5.47;;;2.72;;
33270;SDS011;53180;51.344;6.152;2022-10-20T09:30:49;3.83;;;2.55;;
33270;SDS011;53180;51.344;6.152;2022-10-20T09:33:26;4.45;;;2.75;;
33270;SDS011;53180;51.344;6.152;2022-10-20T09:35:58;5.90;;;2.95;;
33270;SDS011;53180;51.344;6.152;2022-10-20T09:38:32;6.07;;;2.63;;
33270;SDS011;53180;51.344;6.152;2022-10-20T09:41:06;3.80;;;2.30;;
33270;SDS011;53180;51.344;6.152;2022-10-20T09:43:39;4.10;;;2.47;;
33270;SDS011;53180;51.344;6.152;2022-10-20T09:46:23;6.15;;;3.05;;
33270;SDS011;53180;51.344;6.152;2022-10-20T09:48:54;3.83;;;2.58;;
33270;SDS011;53180;51.344;6.152;2022-10-20T09:51:23;4.13;;;2.50;;
33270;SDS011;53180;51.344;6.152;2022-10-20T09:53:54;4.65;;;2.90;;
33270;SDS011;53180;51.344;6.152;2022-10-20T09:56:31;5.63;;;3.50;;
33270;SDS011;53180;51.344;6.152;2022-10-20T09:59:02;4.28;;;2.50;;
33270;SDS011;53180;51.344;6.152;2022-10-20T10:01:37;6.35;;;3.50;;
33270;SDS011;53180;51.344;6.152;2022-10-20T10:04:30;4.50;;;2.88;;
33270;SDS011;53180;51.344;6.152;2022-10-20T10:07:01;7.40;;;2.70;;
33270;SDS011;53180;51.344;6.152;2022-10-20T10:09:32;5.03;;;2.97;;
33270;SDS011;53180;51.344;6.152;2022-10-20T10:12:05;4.38;;;2.78;;
33270;SDS011;53180;51.344;6.152;2022-10-20T10:14:47;4.80;;;3.20;;
33270;SDS011;53180;51.344;6.152;2022-10-20T10:17:27;3.95;;;2.35;;
33270;SDS011;53180;51.344;6.152;2022-10-20T10:19:56;2.83;;;2.13;;
33270;SDS011;53180;51.344;6.152;2022-10-20T10:22:25;5.45;;;2.95;;
33270;SDS011;53180;51.344;6.152;2022-10-20T10:24:53;4.70;;;2.67;;
33270;SDS011;53180;51.344;6.152;2022-10-20T10:27:25;4.03;;;2.33;;
33270;SDS011;53180;51.344;6.152;2022-10-20T10:29:55;5.00;;;2.97;;
33270;SDS011;53180;51.344;6.152;2022-10-20T10:32:53;3.45;;;2.60;;
33270;SDS011;53180;51.344;6.152;2022-10-20T10:35:23;4.18;;;2.85;;
33270;SDS011;53180;51.344;6.152;2022-10-20T10:37:54;2.97;;;2.05;;
33270;SDS011;53180;51.344;6.152;2022-10-20T10:40:27;4.25;;;2.80;;
33270;SDS011;53180;51.344;6.152;2022-10-20T10:43:06;5.38;;;2.50;;
33270;SDS011;53180;51.344;6.152;2022-10-20T10:45:55;4.88;;;2.97;;
33270;SDS011;53180;51.344;6.152;2022-10-20T10:48:35;4.85;;;2.85;;
33270;SDS011;53180;51.344;6.152;2022-10-20T10:51:32;4.03;;;2.72;;
33270;SDS011;53180;51.344;6.152;2022-10-20T10:54:15;3.80;;;2.75;;
33270;SDS011;53180;51.344;6.152;2022-10-20T10:57:01;5.55;;;2.72;;
33270;SDS011;53180;51.344;6.152;2022-10-20T10:59:39;7.03;;;2.95;;
33270;SDS011;53180;51.344;6.152;2022-10-20T11:02:25;5.45;;;3.20;;
33270;SDS011;53180;51.344;6.152;2022-10-20T11:05:46;3.42;;;2.63;;
33270;SDS011;53180;51.344;6.152;2022-10-20T11:08:35;9.18;;;2.67;;
33270;SDS011;53180;51.344;6.152;2022-10-20T11:11:25;3.63;;;2.40;;
33270;SDS011;53180;51.344;6.152;2022-10-20T11:14:09;6.63;;;2.63;;
33270;SDS011;53180;51.344;6.152;2022-10-20T11:16:53;5.57;;;3.10;;
33270;SDS011;53180;51.344;6.152;2022-10-20T11:19:37;5.93;;;3.05;;
33270;SDS011;53180;51.344;6.152;2022-10-20T11:22:36;7.30;;;2.53;;
33270;SDS011;53180;51.344;6.152;2022-10-20T11:25:13;4.10;;;2.55;;
33270;SDS011;53180;51.344;6.152;2022-10-20T11:27:54;6.50;;;2.95;;
33270;SDS011;53180;51.344;6.152;2022-10-20T11:30:23;4.75;;;3.03;;
33270;SDS011;53180;51.344;6.152;2022-10-20T11:32:54;5.10;;;3.00;;
33270;SDS011;53180;51.344;6.152;2022-10-20T11:35:29;4.57;;;3.10;;
33270;SDS011;53180;51.344;6.152;2022-10-20T11:38:10;6.53;;;3.30;;
33270;SDS011;53180;51.344;6.152;2022-10-20T11:40:47;5.75;;;2.95;;
33270;SDS011;53180;51.344;6.152;2022-10-20T11:43:26;3.70;;;2.97;;
33270;SDS011;53180;51.344;6.152;2022-10-20T11:46:00;4.85;;;3.15;;
33270;SDS011;53180;51.344;6.152;2022-10-20T11:48:35;7.38;;;3.17;;
33270;SDS011;53180;51.344;6.152;2022-10-20T11:51:12;7.60;;;3.30;;
33270;SDS011;53180;51.344;6.152;2022-10-20T11:54:10;4.53;;;2.63;;
33270;SDS011;53180;51.344;6.152;2022-10-20T11:57:16;5.68;;;3.25;;
33270;SDS011;53180;51.344;6.152;2022-10-20T12:00:21;5.90;;;2.92;;
33270;SDS011;53180;51.344;6.152;2022-10-20T12:09:36;5.38;;;3.10;;
33270;SDS011;53180;51.344;6.152;2022-10-20T12:12:17;5.75;;;3.50;;
33270;SDS011;53180;51.344;6.152;2022-10-20T12:14:54;7.07;;;4.18;;
33270;SDS011;53180;51.344;6.152;2022-10-20T12:17:26;5.22;;;3.95;;
33270;SDS011;53180;51.344;6.152;2022-10-20T12:26:36;5.80;;;3.67;;
33270;SDS011;53180;51.344;6.152;2022-10-20T12:30:04;7.73;;;3.63;;
33270;SDS011;53180;51.344;6.152;2022-10-20T12:33:17;5.10;;;3.70;;
33270;SDS011;53180;51.344;6.152;2022-10-20T12:36:21;6.53;;;3.42;;
33270;SDS011;53180;51.344;6.152;2022-10-20T12:41:42;6.60;;;3.45;;
33270;SDS011;53180;51.344;6.152;2022-10-20T12:44:24;6.25;;;3.63;;
33270;SDS011;53180;51.344;6.152;2022-10-20T12:46:57;6.25;;;3.92;;
33270;SDS011;53180;51.344;6.152;2022-10-20T12:49:31;5.88;;;4.18;;
33270;SDS011;53180;51.344;6.152;2022-10-20T12:52:02;6.53;;;3.88;;
33270;SDS011;53180;51.344;6.152;2022-10-20T12:54:34;7.28;;;4.38;;
33270;SDS011;53180;51.344;6.152;2022-10-20T12:57:24;7.80;;;4.65;;
33270;SDS011;53180;51.344;6.152;2022-10-20T12:59:56;6.82;;;3.53;;
33270;SDS011;53180;51.344;6.152;2022-10-20T13:08:15;6.78;;;4.20;;
33270;SDS011;53180;51.344;6.152;2022-10-20T13:10:54;8.10;;;4.75;;
33270;SDS011;53180;51.344;6.152;2022-10-20T13:16:28;5.05;;;3.33;;
33270;SDS011;53180;51.344;6.152;2022-10-20T13:18:59;6.00;;;4.07;;
33270;SDS011;53180;51.344;6.152;2022-10-20T13:21:28;6.22;;;4.07;;
33270;SDS011;53180;51.344;6.152;2022-10-20T13:24:11;5.25;;;3.35;;
33270;SDS011;53180;51.344;6.152;2022-10-20T13:26:47;5.45;;;3.92;;
33270;SDS011;53180;51.344;6.152;2022-10-20T13:29:21;6.72;;;4.13;;
33270;SDS011;53180;51.344;6.152;2022-10-20T13:31:58;6.38;;;3.53;;
33270;SDS011;53180;51.344;6.152;2022-10-20T13:34:38;6.50;;;3.58;;
33270;SDS011;53180;51.344;6.152;2022-10-20T13:37:18;5.65;;;3.83;;
33270;SDS011;53180;51.344;6.152;2022-10-20T13:40:10;8.23;;;3.60;;
33270;SDS011;53180;51.344;6.152;2022-10-20T13:45:38;4.75;;;3.30;;
33270;SDS011;53180;51.344;6.152;2022-10-20T13:48:42;6.63;;;3.60;;
33270;SDS011;53180;51.344;6.152;2022-10-20T13:51:25;6.03;;;3.83;;
33270;SDS011;53180;51.344;6.152;2022-10-20T13:53:56;5.15;;;3.53;;
33270;SDS011;53180;51.344;6.152;2022-10-20T13:56:29;5.78;;;3.63;;
33270;SDS011;53180;51.344;6.152;2022-10-20T13:59:03;6.47;;;3.88;;
33270;SDS011;53180;51.344;6.152;2022-10-20T14:01:44;5.32;;;3.55;;
33270;SDS011;53180;51.344;6.152;2022-10-20T14:04:21;5.32;;;3.22;;
33270;SDS011;53180;51.344;6.152;2022-10-20T14:07:00;4.28;;;3.03;;
33270;SDS011;53180;51.344;6.152;2022-10-20T14:09:30;6.13;;;3.90;;
33270;SDS011;53180;51.344;6.152;2022-10-20T14:11:59;4.82;;;3.13;;
33270;SDS011;53180;51.344;6.152;2022-10-20T14:14:32;6.00;;;3.50;;
33270;SDS011;53180;51.344;6.152;2022-10-20T14:17:02;4.70;;;2.78;;
33270;SDS011;53180;51.344;6.152;2022-10-20T14:19:34;6.38;;;4.05;;
33270;SDS011;53180;51.344;6.152;2022-10-20T14:22:09;4.75;;;3.65;;
33270;SDS011;53180;51.344;6.152;2022-10-20T14:24:45;6.13;;;4.10;;
33270;SDS011;53180;51.344;6.152;2022-10-20T14:29:47;7.07;;;4.37;;
33270;SDS011;53180;51.344;6.152;2022-10-20T14:32:17;8.10;;;4.30;;
33270;SDS011;53180;51.344;6.152;2022-10-20T14:34:52;6.88;;;3.95;;
33270;SDS011;53180;51.344;6.152;2022-10-20T14:37:32;5.88;;;3.90;;
33270;SDS011;53180;51.344;6.152;2022-10-20T14:40:04;6.10;;;4.20;;
33270;SDS011;53180;51.344;6.152;2022-10-20T14:42:46;6.45;;;3.80;;
33270;SDS011;53180;51.344;6.152;2022-10-20T14:45:20;8.07;;;3.92;;
33270;SDS011;53180;51.344;6.152;2022-10-20T14:47:51;5.22;;;3.78;;
33270;SDS011;53180;51.344;6.152;2022-10-20T14:50:22;10.02;;;3.65;;
33270;SDS011;53180;51.344;6.152;2022-10-20T14:52:53;6.35;;;3.95;;
33270;SDS011;53180;51.344;6.152;2022-10-20T14:55:25;6.22;;;4.15;;
33270;SDS011;53180;51.344;6.152;2022-10-20T14:57:59;6.28;;;4.22;;
33270;SDS011;53180;51.344;6.152;2022-10-20T15:00:41;5.65;;;4.03;;
33270;SDS011;53180;51.344;6.152;2022-10-20T15:03:09;5.47;;;3.58;;
33270;SDS011;53180;51.344;6.152;2022-10-20T15:05:39;6.57;;;4.53;;
33270;SDS011;53180;51.344;6.152;2022-10-20T15:08:17;5.35;;;3.45;;
33270;SDS011;53180;51.344;6.152;2022-10-20T15:10:52;10.38;;;4.63;;
33270;SDS011;53180;51.344;6.152;2022-10-20T15:13:22;6.50;;;4.10;;
33270;SDS011;53180;51.344;6.152;2022-10-20T15:15:55;6.40;;;3.90;;
33270;SDS011;53180;51.344;6.152;2022-10-20T15:18:25;7.03;;;4.50;;
33270;SDS011;53180;51.344;6.152;2022-10-20T15:20:55;5.95;;;3.80;;
33270;SDS011;53180;51.344;6.152;2022-10-20T15:23:24;7.07;;;4.32;;
33270;SDS011;53180;51.344;6.152;2022-10-20T15:25:56;5.13;;;3.35;;
33270;SDS011;53180;51.344;6.152;2022-10-20T15:28:29;7.45;;;4.25;;
33270;SDS011;53180;51.344;6.152;2022-10-20T15:31:04;7.03;;;4.05;;
33270;SDS011;53180;51.344;6.152;2022-10-20T15:33:41;6.90;;;3.80;;
33270;SDS011;53180;51.344;6.152;2022-10-20T15:36:10;6.25;;;4.10;;
33270;SDS011;53180;51.344;6.152;2022-10-20T15:38:41;6.13;;;3.75;;
33270;SDS011;53180;51.344;6.152;2022-10-20T15:41:11;5.70;;;3.90;;
33270;SDS011;53180;51.344;6.152;2022-10-20T15:43:40;6.38;;;3.92;;
33270;SDS011;53180;51.344;6.152;2022-10-20T15:46:11;6.32;;;4.00;;
33270;SDS011;53180;51.344;6.152;2022-10-20T15:48:41;11.00;;;4.93;;
33270;SDS011;53180;51.344;6.152;2022-10-20T15:51:11;9.25;;;4.93;;
33270;SDS011;53180;51.344;6.152;2022-10-20T15:53:43;13.95;;;6.93;;
33270;SDS011;53180;51.344;6.152;2022-10-20T15:56:14;10.95;;;6.82;;
33270;SDS011;53180;51.344;6.152;2022-10-20T15:58:43;5.10;;;3.50;;
33270;SDS011;53180;51.344;6.152;2022-10-20T16:01:16;6.50;;;4.22;;
33270;SDS011;53180;51.344;6.152;2022-10-20T16:03:47;6.57;;;3.33;;
33270;SDS011;53180;51.344;6.152;2022-10-20T16:06:16;6.95;;;3.67;;
33270;SDS011;53180;51.344;6.152;2022-10-20T16:08:45;6.20;;;3.97;;